sensor_id;sensor_type;location;lat;lon;timestamp;P1;durP1;ratioP1;P2;durP2;ratioP2
27802;SDS011;15182;48.174;11.562;2023-06-26T00:02:25;7.00;;;6.40;;
27802;SDS011;15182;48.174;11.562;2023-06-26T00:04:53;9.23;;;6.20;;
27802;SDS011;15182;48.174;11.562;2023-06-26T00:07:21;7.47;;;6.47;;
27802;SDS011;15182;48.174;11.562;2023-06-26T00:09:49;6.85;;;5.93;;
27802;SDS011;15182;48.174;11.562;2023-06-26T00:12:18;6.93;;;6.40;;
27802;SDS011;15182;48.174;11.562;2023-06-26T00:14:46;6.53;;;6.03;;
27802;SDS011;15182;48.174;11.562;2023-06-26T00:17:13;6.68;;;6.18;;
27802;SDS011;15182;48.174;11.562;2023-06-26T00:19:42;6.30;;;5.90;;
27802;SDS011;15182;48.174;11.562;2023-06-26T00:22:10;7.07;;;6.47;;
27802;SDS011;15182;48.174;11.562;2023-06-26T00:24:38;7.90;;;6.47;;
27802;SDS011;15182;48.174;11.562;2023-06-26T00:27:06;6.68;;;6.07;;
27802;SDS011;15182;48.174;11.562;2023-06-26T00:29:36;7.55;;;6.80;;
27802;SDS011;15182;48.174;11.562;2023-06-26T00:32:04;7.10;;;6.60;;
27802;SDS011;15182;48.174;11.562;2023-06-26T00:34:33;6.72;;;6.28;;
27802;SDS011;15182;48.174;11.562;2023-06-26T00:37:01;6.25;;;5.85;;
27802;SDS011;15182;48.174;11.562;2023-06-26T00:39:30;6.45;;;5.90;;
27802;SDS011;15182;48.174;11.562;2023-06-26T00:42:01;10.93;;;6.05;;
27802;SDS011;15182;48.174;11.562;2023-06-26T00:44:28;7.05;;;6.55;;
27802;SDS011;15182;48.174;11.562;2023-06-26T00:46:58;6.35;;;5.85;;
27802;SDS011;15182;48.174;11.562;2023-06-26T00:49:26;6.65;;;6.18;;
27802;SDS011;15182;48.174;11.562;2023-06-26T00:51:55;6.35;;;5.93;;
27802;SDS011;15182;48.174;11.562;2023-06-26T00:54:24;5.95;;;5.55;;
27802;SDS011;15182;48.174;11.562;2023-06-26T00:56:52;6.30;;;5.80;;
27802;SDS011;15182;48.174;11.562;2023-06-26T00:59:20;6.07;;;5.57;;
27802;SDS011;15182;48.174;11.562;2023-06-26T01:01:47;6.65;;;6.15;;
27802;SDS011;15182;48.174;11.562;2023-06-26T01:04:16;6.20;;;5.60;;
27802;SDS011;15182;48.174;11.562;2023-06-26T01:06:45;6.03;;;5.72;;
27802;SDS011;15182;48.174;11.562;2023-06-26T01:09:16;6.47;;;6.00;;
27802;SDS011;15182;48.174;11.562;2023-06-26T01:11:45;5.93;;;5.63;;
27802;SDS011;15182;48.174;11.562;2023-06-26T01:14:14;5.72;;;5.32;;
27802;SDS011;15182;48.174;11.562;2023-06-26T01:16:44;7.30;;;5.88;;
27802;SDS011;15182;48.174;11.562;2023-06-26T01:19:16;6.30;;;5.82;;
27802;SDS011;15182;48.174;11.562;2023-06-26T01:21:51;6.53;;;6.03;;
27802;SDS011;15182;48.174;11.562;2023-06-26T01:24:32;6.63;;;6.03;;
27802;SDS011;15182;48.174;11.562;2023-06-26T01:27:04;6.32;;;5.82;;
27802;SDS011;15182;48.174;11.562;2023-06-26T01:29:33;6.30;;;5.85;;
27802;SDS011;15182;48.174;11.562;2023-06-26T01:32:03;6.55;;;5.95;;
27802;SDS011;15182;48.174;11.562;2023-06-26T01:34:32;6.65;;;6.25;;
27802;SDS011;15182;48.174;11.562;2023-06-26T01:37:00;7.15;;;6.45;;
27802;SDS011;15182;48.174;11.562;2023-06-26T01:39:28;7.22;;;6.53;;
27802;SDS011;15182;48.174;11.562;2023-06-26T01:41:56;7.30;;;6.60;;
27802;SDS011;15182;48.174;11.562;2023-06-26T01:44:28;6.75;;;6.25;;
27802;SDS011;15182;48.174;11.562;2023-06-26T01:46:59;6.68;;;6.07;;
27802;SDS011;15182;48.174;11.562;2023-06-26T01:49:31;6.60;;;6.00;;
27802;SDS011;15182;48.174;11.562;2023-06-26T01:52:10;6.28;;;5.63;;
27802;SDS011;15182;48.174;11.562;2023-06-26T01:54:49;6.93;;;6.32;;
27802;SDS011;15182;48.174;11.562;2023-06-26T01:57:26;5.97;;;5.60;;
27802;SDS011;15182;48.174;11.562;2023-06-26T01:59:56;6.00;;;5.57;;
27802;SDS011;15182;48.174;11.562;2023-06-26T02:02:27;6.97;;;6.38;;
27802;SDS011;15182;48.174;11.562;2023-06-26T02:04:56;6.38;;;5.97;;
27802;SDS011;15182;48.174;11.562;2023-06-26T02:07:23;9.95;;;6.22;;
27802;SDS011;15182;48.174;11.562;2023-06-26T02:09:51;6.05;;;5.65;;
27802;SDS011;15182;48.174;11.562;2023-06-26T02:12:19;6.10;;;5.60;;
27802;SDS011;15182;48.174;11.562;2023-06-26T02:14:47;6.28;;;5.65;;
27802;SDS011;15182;48.174;11.562;2023-06-26T02:17:23;5.80;;;5.40;;
27802;SDS011;15182;48.174;11.562;2023-06-26T02:19:54;6.40;;;5.90;;
27802;SDS011;15182;48.174;11.562;2023-06-26T02:22:22;6.00;;;5.50;;
27802;SDS011;15182;48.174;11.562;2023-06-26T02:24:49;7.03;;;6.32;;
27802;SDS011;15182;48.174;11.562;2023-06-26T02:27:17;6.70;;;6.20;;
27802;SDS011;15182;48.174;11.562;2023-06-26T02:29:45;6.55;;;6.05;;
27802;SDS011;15182;48.174;11.562;2023-06-26T02:32:13;6.65;;;6.15;;
27802;SDS011;15182;48.174;11.562;2023-06-26T02:34:42;6.50;;;5.97;;
27802;SDS011;15182;48.174;11.562;2023-06-26T02:37:10;6.55;;;5.95;;
27802;SDS011;15182;48.174;11.562;2023-06-26T02:39:38;6.85;;;6.35;;
27802;SDS011;15182;48.174;11.562;2023-06-26T02:42:08;6.68;;;6.20;;
27802;SDS011;15182;48.174;11.562;2023-06-26T02:44:36;6.75;;;6.10;;
27802;SDS011;15182;48.174;11.562;2023-06-26T02:47:05;6.38;;;5.88;;
27802;SDS011;15182;48.174;11.562;2023-06-26T02:49:35;7.00;;;6.40;;
27802;SDS011;15182;48.174;11.562;2023-06-26T02:52:05;7.13;;;6.53;;
27802;SDS011;15182;48.174;11.562;2023-06-26T02:54:33;6.35;;;5.95;;
27802;SDS011;15182;48.174;11.562;2023-06-26T02:57:04;5.82;;;5.45;;
27802;SDS011;15182;48.174;11.562;2023-06-26T02:59:33;6.78;;;6.22;;
27802;SDS011;15182;48.174;11.562;2023-06-26T03:02:02;7.38;;;6.28;;
27802;SDS011;15182;48.174;11.562;2023-06-26T03:04:35;6.65;;;6.15;;
27802;SDS011;15182;48.174;11.562;2023-06-26T03:07:06;7.07;;;6.38;;
27802;SDS011;15182;48.174;11.562;2023-06-26T03:09:34;6.88;;;5.90;;
27802;SDS011;15182;48.174;11.562;2023-06-26T03:12:02;6.10;;;5.70;;
27802;SDS011;15182;48.174;11.562;2023-06-26T03:14:33;6.22;;;5.85;;
27802;SDS011;15182;48.174;11.562;2023-06-26T03:17:01;6.75;;;6.25;;
27802;SDS011;15182;48.174;11.562;2023-06-26T03:19:31;7.65;;;6.53;;
27802;SDS011;15182;48.174;11.562;2023-06-26T03:22:19;6.53;;;6.05;;
27802;SDS011;15182;48.174;11.562;2023-06-26T03:24:47;7.43;;;5.63;;
27802;SDS011;15182;48.174;11.562;2023-06-26T03:27:15;6.78;;;6.28;;
27802;SDS011;15182;48.174;11.562;2023-06-26T03:29:44;6.38;;;5.82;;
27802;SDS011;15182;48.174;11.562;2023-06-26T03:32:12;6.60;;;6.10;;
27802;SDS011;15182;48.174;11.562;2023-06-26T03:34:40;6.47;;;5.97;;
27802;SDS011;15182;48.174;11.562;2023-06-26T03:37:08;6.38;;;5.88;;
27802;SDS011;15182;48.174;11.562;2023-06-26T03:39:37;6.95;;;6.35;;
27802;SDS011;15182;48.174;11.562;2023-06-26T03:42:05;6.93;;;6.38;;
27802;SDS011;15182;48.174;11.562;2023-06-26T03:44:34;7.05;;;6.40;;
27802;SDS011;15182;48.174;11.562;2023-06-26T03:47:02;6.78;;;6.18;;
27802;SDS011;15182;48.174;11.562;2023-06-26T03:49:30;6.72;;;6.22;;
27802;SDS011;15182;48.174;11.562;2023-06-26T03:51:58;7.55;;;6.82;;
27802;SDS011;15182;48.174;11.562;2023-06-26T03:54:26;7.00;;;6.00;;
27802;SDS011;15182;48.174;11.562;2023-06-26T03:56:56;7.20;;;6.50;;
27802;SDS011;15182;48.174;11.562;2023-06-26T03:59:23;6.90;;;6.30;;
27802;SDS011;15182;48.174;11.562;2023-06-26T04:01:51;6.75;;;6.25;;
27802;SDS011;15182;48.174;11.562;2023-06-26T04:04:20;6.85;;;6.25;;
27802;SDS011;15182;48.174;11.562;2023-06-26T04:06:47;6.60;;;6.10;;
27802;SDS011;15182;48.174;11.562;2023-06-26T04:09:16;7.00;;;6.40;;
27802;SDS011;15182;48.174;11.562;2023-06-26T04:11:45;7.05;;;6.47;;
27802;SDS011;15182;48.174;11.562;2023-06-26T04:14:14;6.70;;;6.20;;
27802;SDS011;15182;48.174;11.562;2023-06-26T04:16:42;7.03;;;6.45;;
27802;SDS011;15182;48.174;11.562;2023-06-26T04:19:11;6.43;;;5.93;;
27802;SDS011;15182;48.174;11.562;2023-06-26T04:21:39;8.02;;;6.18;;
27802;SDS011;15182;48.174;11.562;2023-06-26T04:24:07;6.47;;;5.97;;
27802;SDS011;15182;48.174;11.562;2023-06-26T04:26:35;6.47;;;6.05;;
27802;SDS011;15182;48.174;11.562;2023-06-26T04:29:03;6.63;;;6.03;;
27802;SDS011;15182;48.174;11.562;2023-06-26T04:31:32;6.82;;;6.28;;
27802;SDS011;15182;48.174;11.562;2023-06-26T04:34:00;6.93;;;6.35;;
27802;SDS011;15182;48.174;11.562;2023-06-26T04:36:28;6.75;;;6.15;;
27802;SDS011;15182;48.174;11.562;2023-06-26T04:38:56;6.35;;;5.90;;
27802;SDS011;15182;48.174;11.562;2023-06-26T04:41:23;7.00;;;6.40;;
27802;SDS011;15182;48.174;11.562;2023-06-26T04:43:51;7.20;;;6.60;;
27802;SDS011;15182;48.174;11.562;2023-06-26T04:46:19;7.60;;;6.90;;
27802;SDS011;15182;48.174;11.562;2023-06-26T04:48:48;6.72;;;6.15;;
27802;SDS011;15182;48.174;11.562;2023-06-26T04:51:16;6.53;;;6.03;;
27802;SDS011;15182;48.174;11.562;2023-06-26T04:53:46;7.45;;;6.75;;
27802;SDS011;15182;48.174;11.562;2023-06-26T04:56:14;6.22;;;5.78;;
27802;SDS011;15182;48.174;11.562;2023-06-26T04:58:42;6.35;;;5.88;;
27802;SDS011;15182;48.174;11.562;2023-06-26T05:01:10;6.47;;;6.05;;
27802;SDS011;15182;48.174;11.562;2023-06-26T05:03:39;6.43;;;5.95;;
27802;SDS011;15182;48.174;11.562;2023-06-26T05:06:08;6.57;;;5.97;;
27802;SDS011;15182;48.174;11.562;2023-06-26T05:08:36;7.15;;;6.50;;
27802;SDS011;15182;48.174;11.562;2023-06-26T05:11:04;6.35;;;5.93;;
27802;SDS011;15182;48.174;11.562;2023-06-26T05:13:32;7.00;;;6.40;;
27802;SDS011;15182;48.174;11.562;2023-06-26T05:15:59;6.82;;;5.75;;
27802;SDS011;15182;48.174;11.562;2023-06-26T05:18:27;6.78;;;6.22;;
27802;SDS011;15182;48.174;11.562;2023-06-26T05:20:55;7.10;;;6.47;;
27802;SDS011;15182;48.174;11.562;2023-06-26T05:23:25;7.18;;;6.47;;
27802;SDS011;15182;48.174;11.562;2023-06-26T05:25:54;11.55;;;6.78;;
27802;SDS011;15182;48.174;11.562;2023-06-26T05:28:22;7.22;;;6.45;;
27802;SDS011;15182;48.174;11.562;2023-06-26T05:30:53;6.65;;;6.15;;
27802;SDS011;15182;48.174;11.562;2023-06-26T05:33:22;7.30;;;6.60;;
27802;SDS011;15182;48.174;11.562;2023-06-26T05:35:52;7.75;;;6.40;;
27802;SDS011;15182;48.174;11.562;2023-06-26T05:38:21;6.95;;;6.38;;
27802;SDS011;15182;48.174;11.562;2023-06-26T05:40:52;6.70;;;6.20;;
27802;SDS011;15182;48.174;11.562;2023-06-26T05:43:22;9.20;;;5.57;;
27802;SDS011;15182;48.174;11.562;2023-06-26T05:45:50;6.93;;;6.40;;
27802;SDS011;15182;48.174;11.562;2023-06-26T05:48:18;6.13;;;5.72;;
27802;SDS011;15182;48.174;11.562;2023-06-26T05:50:46;6.70;;;6.00;;
27802;SDS011;15182;48.174;11.562;2023-06-26T05:53:15;6.45;;;6.03;;
27802;SDS011;15182;48.174;11.562;2023-06-26T05:55:43;6.97;;;6.30;;
27802;SDS011;15182;48.174;11.562;2023-06-26T05:58:13;8.50;;;6.97;;
27802;SDS011;15182;48.174;11.562;2023-06-26T06:00:43;7.00;;;6.30;;
27802;SDS011;15182;48.174;11.562;2023-06-26T06:03:10;15.57;;;6.75;;
27802;SDS011;15182;48.174;11.562;2023-06-26T06:05:38;10.63;;;6.88;;
27802;SDS011;15182;48.174;11.562;2023-06-26T06:08:06;13.20;;;6.28;;
27802;SDS011;15182;48.174;11.562;2023-06-26T06:10:34;7.72;;;6.93;;
27802;SDS011;15182;48.174;11.562;2023-06-26T06:13:02;8.25;;;6.40;;
27802;SDS011;15182;48.174;11.562;2023-06-26T06:15:31;6.55;;;6.00;;
27802;SDS011;15182;48.174;11.562;2023-06-26T06:17:58;6.50;;;6.10;;
27802;SDS011;15182;48.174;11.562;2023-06-26T06:20:26;7.50;;;6.15;;
27802;SDS011;15182;48.174;11.562;2023-06-26T06:22:54;6.28;;;5.72;;
27802;SDS011;15182;48.174;11.562;2023-06-26T06:25:22;6.13;;;5.70;;
27802;SDS011;15182;48.174;11.562;2023-06-26T06:27:50;6.43;;;5.90;;
27802;SDS011;15182;48.174;11.562;2023-06-26T06:30:18;6.18;;;5.75;;
27802;SDS011;15182;48.174;11.562;2023-06-26T06:32:47;6.43;;;6.03;;
27802;SDS011;15182;48.174;11.562;2023-06-26T06:35:17;6.97;;;6.25;;
27802;SDS011;15182;48.174;11.562;2023-06-26T06:37:45;7.47;;;6.70;;
27802;SDS011;15182;48.174;11.562;2023-06-26T06:40:14;6.80;;;6.20;;
27802;SDS011;15182;48.174;11.562;2023-06-26T06:42:43;6.78;;;5.97;;
27802;SDS011;15182;48.174;11.562;2023-06-26T06:45:11;6.65;;;6.15;;
27802;SDS011;15182;48.174;11.562;2023-06-26T06:47:39;6.88;;;6.03;;
27802;SDS011;15182;48.174;11.562;2023-06-26T06:50:08;6.05;;;5.65;;
27802;SDS011;15182;48.174;11.562;2023-06-26T06:52:36;6.70;;;6.18;;
27802;SDS011;15182;48.174;11.562;2023-06-26T06:55:06;9.23;;;6.05;;
27802;SDS011;15182;48.174;11.562;2023-06-26T06:57:35;6.80;;;6.25;;
27802;SDS011;15182;48.174;11.562;2023-06-26T07:00:05;6.50;;;6.10;;
27802;SDS011;15182;48.174;11.562;2023-06-26T07:02:35;6.95;;;6.22;;
27802;SDS011;15182;48.174;11.562;2023-06-26T07:05:03;6.55;;;6.15;;
27802;SDS011;15182;48.174;11.562;2023-06-26T07:07:33;6.15;;;5.75;;
27802;SDS011;15182;48.174;11.562;2023-06-26T07:10:03;5.97;;;5.53;;
27802;SDS011;15182;48.174;11.562;2023-06-26T07:12:33;6.07;;;5.72;;
27802;SDS011;15182;48.174;11.562;2023-06-26T07:15:02;6.88;;;6.28;;
27802;SDS011;15182;48.174;11.562;2023-06-26T07:17:32;5.97;;;5.55;;
27802;SDS011;15182;48.174;11.562;2023-06-26T07:20:01;6.18;;;5.72;;
27802;SDS011;15182;48.174;11.562;2023-06-26T07:22:34;6.20;;;5.80;;
27802;SDS011;15182;48.174;11.562;2023-06-26T07:25:01;5.53;;;5.18;;
27802;SDS011;15182;48.174;11.562;2023-06-26T07:27:30;6.88;;;5.35;;
27802;SDS011;15182;48.174;11.562;2023-06-26T07:29:59;5.70;;;5.40;;
27802;SDS011;15182;48.174;11.562;2023-06-26T07:32:27;5.93;;;5.63;;
27802;SDS011;15182;48.174;11.562;2023-06-26T07:34:54;5.43;;;5.03;;
27802;SDS011;15182;48.174;11.562;2023-06-26T07:37:22;6.20;;;5.88;;
27802;SDS011;15182;48.174;11.562;2023-06-26T07:39:52;6.00;;;5.70;;
27802;SDS011;15182;48.174;11.562;2023-06-26T07:42:19;6.18;;;5.82;;
27802;SDS011;15182;48.174;11.562;2023-06-26T07:44:47;6.63;;;6.15;;
27802;SDS011;15182;48.174;11.562;2023-06-26T07:47:15;6.32;;;5.93;;
27802;SDS011;15182;48.174;11.562;2023-06-26T07:49:43;6.30;;;5.70;;
27802;SDS011;15182;48.174;11.562;2023-06-26T07:52:11;21.60;;;7.78;;
27802;SDS011;15182;48.174;11.562;2023-06-26T07:54:40;6.57;;;6.07;;
27802;SDS011;15182;48.174;11.562;2023-06-26T07:57:10;6.70;;;6.30;;
27802;SDS011;15182;48.174;11.562;2023-06-26T07:59:39;6.55;;;6.15;;
27802;SDS011;15182;48.174;11.562;2023-06-26T08:02:07;6.18;;;5.72;;
27802;SDS011;15182;48.174;11.562;2023-06-26T08:04:35;7.60;;;6.20;;
27802;SDS011;15182;48.174;11.562;2023-06-26T08:07:02;6.47;;;5.88;;
27802;SDS011;15182;48.174;11.562;2023-06-26T08:09:31;6.32;;;5.80;;
27802;SDS011;15182;48.174;11.562;2023-06-26T08:11:59;6.03;;;5.68;;
27802;SDS011;15182;48.174;11.562;2023-06-26T08:14:28;6.47;;;5.97;;
27802;SDS011;15182;48.174;11.562;2023-06-26T08:16:57;5.95;;;5.55;;
27802;SDS011;15182;48.174;11.562;2023-06-26T08:19:25;6.70;;;6.30;;
27802;SDS011;15182;48.174;11.562;2023-06-26T08:21:53;6.65;;;6.18;;
27802;SDS011;15182;48.174;11.562;2023-06-26T08:24:21;6.70;;;6.20;;
27802;SDS011;15182;48.174;11.562;2023-06-26T08:26:48;6.13;;;5.78;;
27802;SDS011;15182;48.174;11.562;2023-06-26T08:29:16;6.13;;;5.78;;
27802;SDS011;15182;48.174;11.562;2023-06-26T08:31:45;6.10;;;5.75;;
27802;SDS011;15182;48.174;11.562;2023-06-26T08:34:13;6.55;;;6.00;;
27802;SDS011;15182;48.174;11.562;2023-06-26T08:36:41;7.30;;;6.53;;
27802;SDS011;15182;48.174;11.562;2023-06-26T08:39:10;6.20;;;5.80;;
27802;SDS011;15182;48.174;11.562;2023-06-26T08:41:37;5.75;;;5.43;;
27802;SDS011;15182;48.174;11.562;2023-06-26T08:44:05;6.05;;;5.68;;
27802;SDS011;15182;48.174;11.562;2023-06-26T08:46:33;5.90;;;5.50;;
27802;SDS011;15182;48.174;11.562;2023-06-26T08:49:05;6.28;;;5.93;;
27802;SDS011;15182;48.174;11.562;2023-06-26T08:51:45;6.15;;;5.75;;
27802;SDS011;15182;48.174;11.562;2023-06-26T08:54:20;5.97;;;5.65;;
27802;SDS011;15182;48.174;11.562;2023-06-26T08:56:55;5.80;;;5.40;;
27802;SDS011;15182;48.174;11.562;2023-06-26T08:59:24;6.40;;;5.80;;
27802;SDS011;15182;48.174;11.562;2023-06-26T09:01:52;6.13;;;5.82;;
27802;SDS011;15182;48.174;11.562;2023-06-26T09:04:21;6.28;;;5.78;;
27802;SDS011;15182;48.174;11.562;2023-06-26T09:06:49;5.82;;;5.53;;
27802;SDS011;15182;48.174;11.562;2023-06-26T09:09:17;5.88;;;5.57;;
27802;SDS011;15182;48.174;11.562;2023-06-26T09:11:44;5.75;;;5.45;;
27802;SDS011;15182;48.174;11.562;2023-06-26T09:14:12;5.93;;;5.43;;
27802;SDS011;15182;48.174;11.562;2023-06-26T09:16:41;6.30;;;5.40;;
27802;SDS011;15182;48.174;11.562;2023-06-26T09:19:09;5.95;;;5.32;;
27802;SDS011;15182;48.174;11.562;2023-06-26T09:21:40;6.10;;;5.25;;
27802;SDS011;15182;48.174;11.562;2023-06-26T09:24:09;5.70;;;5.38;;
27802;SDS011;15182;48.174;11.562;2023-06-26T09:26:38;6.22;;;5.65;;
27802;SDS011;15182;48.174;11.562;2023-06-26T09:29:07;5.63;;;5.15;;
27802;SDS011;15182;48.174;11.562;2023-06-26T09:31:36;5.32;;;5.05;;
27802;SDS011;15182;48.174;11.562;2023-06-26T09:34:05;6.03;;;5.07;;
27802;SDS011;15182;48.174;11.562;2023-06-26T09:36:33;5.85;;;5.55;;
27802;SDS011;15182;48.174;11.562;2023-06-26T09:39:03;5.30;;;5.07;;
27802;SDS011;15182;48.174;11.562;2023-06-26T09:41:36;4.80;;;4.60;;
27802;SDS011;15182;48.174;11.562;2023-06-26T09:44:05;4.82;;;4.63;;
27802;SDS011;15182;48.174;11.562;2023-06-26T09:46:33;4.38;;;4.20;;
27802;SDS011;15182;48.174;11.562;2023-06-26T09:49:02;6.13;;;4.53;;
27802;SDS011;15182;48.174;11.562;2023-06-26T09:51:32;4.85;;;4.40;;
27802;SDS011;15182;48.174;11.562;2023-06-26T09:54:02;5.10;;;4.90;;
27802;SDS011;15182;48.174;11.562;2023-06-26T09:56:33;5.53;;;5.03;;
27802;SDS011;15182;48.174;11.562;2023-06-26T09:59:01;4.85;;;4.75;;
27802;SDS011;15182;48.174;11.562;2023-06-26T10:01:30;4.85;;;4.40;;
27802;SDS011;15182;48.174;11.562;2023-06-26T10:03:59;4.53;;;4.30;;
27802;SDS011;15182;48.174;11.562;2023-06-26T10:06:27;4.60;;;4.40;;
27802;SDS011;15182;48.174;11.562;2023-06-26T10:09:01;4.28;;;4.07;;
27802;SDS011;15182;48.174;11.562;2023-06-26T10:11:32;4.10;;;3.80;;
27802;SDS011;15182;48.174;11.562;2023-06-26T10:14:07;4.20;;;4.00;;
27802;SDS011;15182;48.174;11.562;2023-06-26T10:16:38;4.80;;;4.32;;
27802;SDS011;15182;48.174;11.562;2023-06-26T10:19:08;4.93;;;4.63;;
27802;SDS011;15182;48.174;11.562;2023-06-26T10:21:39;3.92;;;3.83;;
27802;SDS011;15182;48.174;11.562;2023-06-26T10:24:07;4.30;;;4.10;;
27802;SDS011;15182;48.174;11.562;2023-06-26T10:26:38;4.57;;;4.38;;
27802;SDS011;15182;48.174;11.562;2023-06-26T10:29:12;4.57;;;4.40;;
27802;SDS011;15182;48.174;11.562;2023-06-26T10:31:43;4.20;;;4.00;;
27802;SDS011;15182;48.174;11.562;2023-06-26T10:34:15;4.63;;;4.40;;
27802;SDS011;15182;48.174;11.562;2023-06-26T10:36:42;3.75;;;3.65;;
27802;SDS011;15182;48.174;11.562;2023-06-26T10:39:10;4.13;;;3.97;;
27802;SDS011;15182;48.174;11.562;2023-06-26T10:41:40;4.32;;;4.00;;
27802;SDS011;15182;48.174;11.562;2023-06-26T10:44:09;4.03;;;3.78;;
27802;SDS011;15182;48.174;11.562;2023-06-26T10:46:48;10.43;;;3.80;;
27802;SDS011;15182;48.174;11.562;2023-06-26T10:49:18;4.30;;;4.07;;
27802;SDS011;15182;48.174;11.562;2023-06-26T10:51:47;3.72;;;3.63;;
27802;SDS011;15182;48.174;11.562;2023-06-26T10:54:16;4.35;;;4.15;;
27802;SDS011;15182;48.174;11.562;2023-06-26T10:56:47;3.92;;;3.83;;
27802;SDS011;15182;48.174;11.562;2023-06-26T10:59:17;4.10;;;3.88;;
27802;SDS011;15182;48.174;11.562;2023-06-26T11:01:47;4.00;;;3.90;;
27802;SDS011;15182;48.174;11.562;2023-06-26T11:04:35;4.20;;;4.10;;
27802;SDS011;15182;48.174;11.562;2023-06-26T11:07:15;4.85;;;4.03;;
27802;SDS011;15182;48.174;11.562;2023-06-26T11:09:54;3.80;;;3.60;;
27802;SDS011;15182;48.174;11.562;2023-06-26T11:12:38;3.92;;;3.83;;
27802;SDS011;15182;48.174;11.562;2023-06-26T11:15:08;4.25;;;4.05;;
27802;SDS011;15182;48.174;11.562;2023-06-26T11:17:36;4.40;;;4.25;;
27802;SDS011;15182;48.174;11.562;2023-06-26T11:20:05;4.32;;;4.13;;
27802;SDS011;15182;48.174;11.562;2023-06-26T11:22:36;4.07;;;3.95;;
27802;SDS011;15182;48.174;11.562;2023-06-26T11:25:05;4.32;;;3.90;;
27802;SDS011;15182;48.174;11.562;2023-06-26T11:27:39;4.57;;;4.40;;
27802;SDS011;15182;48.174;11.562;2023-06-26T11:30:08;4.85;;;4.55;;
27802;SDS011;15182;48.174;11.562;2023-06-26T11:32:38;4.47;;;4.38;;
27802;SDS011;15182;48.174;11.562;2023-06-26T11:35:06;4.93;;;4.72;;
27802;SDS011;15182;48.174;11.562;2023-06-26T11:37:35;5.28;;;4.60;;
27802;SDS011;15182;48.174;11.562;2023-06-26T11:40:15;4.68;;;4.47;;
27802;SDS011;15182;48.174;11.562;2023-06-26T11:42:45;4.43;;;4.32;;
27802;SDS011;15182;48.174;11.562;2023-06-26T11:45:13;5.20;;;4.90;;
27802;SDS011;15182;48.174;11.562;2023-06-26T11:47:41;4.38;;;4.28;;
27802;SDS011;15182;48.174;11.562;2023-06-26T11:50:14;4.63;;;4.40;;
27802;SDS011;15182;48.174;11.562;2023-06-26T11:52:43;5.72;;;5.22;;
27802;SDS011;15182;48.174;11.562;2023-06-26T11:55:11;5.05;;;4.75;;
27802;SDS011;15182;48.174;11.562;2023-06-26T11:57:39;4.60;;;4.50;;
27802;SDS011;15182;48.174;11.562;2023-06-26T12:00:11;4.97;;;4.65;;
27802;SDS011;15182;48.174;11.562;2023-06-26T12:02:40;5.20;;;4.78;;
27802;SDS011;15182;48.174;11.562;2023-06-26T12:05:08;4.70;;;4.50;;
27802;SDS011;15182;48.174;11.562;2023-06-26T12:07:36;5.00;;;4.80;;
27802;SDS011;15182;48.174;11.562;2023-06-26T12:10:05;4.93;;;4.72;;
27802;SDS011;15182;48.174;11.562;2023-06-26T12:12:34;6.32;;;4.60;;
27802;SDS011;15182;48.174;11.562;2023-06-26T12:15:02;5.13;;;4.78;;
27802;SDS011;15182;48.174;11.562;2023-06-26T12:17:32;4.82;;;4.47;;
27802;SDS011;15182;48.174;11.562;2023-06-26T12:20:00;5.07;;;4.88;;
27802;SDS011;15182;48.174;11.562;2023-06-26T12:22:33;4.90;;;4.70;;
27802;SDS011;15182;48.174;11.562;2023-06-26T12:25:01;5.75;;;5.07;;
27802;SDS011;15182;48.174;11.562;2023-06-26T12:27:30;5.38;;;5.15;;
27802;SDS011;15182;48.174;11.562;2023-06-26T12:29:58;5.35;;;4.95;;
27802;SDS011;15182;48.174;11.562;2023-06-26T12:32:26;4.78;;;4.57;;
27802;SDS011;15182;48.174;11.562;2023-06-26T12:34:56;4.90;;;4.70;;
27802;SDS011;15182;48.174;11.562;2023-06-26T12:37:24;4.78;;;4.57;;
27802;SDS011;15182;48.174;11.562;2023-06-26T12:39:53;5.28;;;4.97;;
27802;SDS011;15182;48.174;11.562;2023-06-26T12:42:22;5.38;;;5.18;;
27802;SDS011;15182;48.174;11.562;2023-06-26T12:44:51;5.20;;;5.00;;
27802;SDS011;15182;48.174;11.562;2023-06-26T12:47:23;5.43;;;4.90;;
27802;SDS011;15182;48.174;11.562;2023-06-26T12:49:52;5.22;;;4.72;;
27802;SDS011;15182;48.174;11.562;2023-06-26T12:52:23;4.93;;;4.70;;
27802;SDS011;15182;48.174;11.562;2023-06-26T12:54:51;4.97;;;4.63;;
27802;SDS011;15182;48.174;11.562;2023-06-26T12:57:21;5.03;;;4.80;;
27802;SDS011;15182;48.174;11.562;2023-06-26T12:59:49;5.63;;;4.88;;
27802;SDS011;15182;48.174;11.562;2023-06-26T13:02:17;5.32;;;4.90;;
27802;SDS011;15182;48.174;11.562;2023-06-26T13:04:46;5.45;;;5.00;;
27802;SDS011;15182;48.174;11.562;2023-06-26T13:07:15;5.55;;;5.15;;
27802;SDS011;15182;48.174;11.562;2023-06-26T13:09:44;5.55;;;5.10;;
27802;SDS011;15182;48.174;11.562;2023-06-26T13:12:13;5.28;;;5.00;;
27802;SDS011;15182;48.174;11.562;2023-06-26T13:14:41;5.05;;;4.85;;
27802;SDS011;15182;48.174;11.562;2023-06-26T13:17:10;5.80;;;5.50;;
27802;SDS011;15182;48.174;11.562;2023-06-26T13:19:38;6.78;;;5.07;;
27802;SDS011;15182;48.174;11.562;2023-06-26T13:22:06;4.90;;;4.60;;
27802;SDS011;15182;48.174;11.562;2023-06-26T13:24:35;5.20;;;5.00;;
27802;SDS011;15182;48.174;11.562;2023-06-26T13:27:03;5.88;;;5.57;;
27802;SDS011;15182;48.174;11.562;2023-06-26T13:29:31;5.30;;;5.00;;
27802;SDS011;15182;48.174;11.562;2023-06-26T13:31:59;5.65;;;5.35;;
27802;SDS011;15182;48.174;11.562;2023-06-26T13:34:27;6.20;;;5.32;;
27802;SDS011;15182;48.174;11.562;2023-06-26T13:36:56;5.53;;;5.15;;
27802;SDS011;15182;48.174;11.562;2023-06-26T13:39:25;5.85;;;5.55;;
27802;SDS011;15182;48.174;11.562;2023-06-26T13:41:54;46.92;;;7.57;;
27802;SDS011;15182;48.174;11.562;2023-06-26T13:44:22;5.75;;;5.45;;
27802;SDS011;15182;48.174;11.562;2023-06-26T13:46:50;5.60;;;5.32;;
27802;SDS011;15182;48.174;11.562;2023-06-26T13:49:19;6.20;;;5.20;;
27802;SDS011;15182;48.174;11.562;2023-06-26T13:51:47;6.32;;;5.70;;
27802;SDS011;15182;48.174;11.562;2023-06-26T13:54:14;6.20;;;5.65;;
27802;SDS011;15182;48.174;11.562;2023-06-26T13:56:44;6.13;;;5.80;;
27802;SDS011;15182;48.174;11.562;2023-06-26T13:59:13;5.80;;;5.43;;
27802;SDS011;15182;48.174;11.562;2023-06-26T14:01:41;5.78;;;5.47;;
27802;SDS011;15182;48.174;11.562;2023-06-26T14:04:09;6.13;;;5.80;;
27802;SDS011;15182;48.174;11.562;2023-06-26T14:06:37;6.22;;;5.32;;
27802;SDS011;15182;48.174;11.562;2023-06-26T14:09:05;6.10;;;5.65;;
27802;SDS011;15182;48.174;11.562;2023-06-26T14:11:32;5.70;;;5.47;;
27802;SDS011;15182;48.174;11.562;2023-06-26T14:14:00;5.28;;;4.97;;
27802;SDS011;15182;48.174;11.562;2023-06-26T14:16:29;5.72;;;5.43;;
27802;SDS011;15182;48.174;11.562;2023-06-26T14:18:57;5.78;;;5.30;;
27802;SDS011;15182;48.174;11.562;2023-06-26T14:21:25;5.90;;;5.60;;
27802;SDS011;15182;48.174;11.562;2023-06-26T14:23:53;6.00;;;5.60;;
27802;SDS011;15182;48.174;11.562;2023-06-26T14:26:21;7.93;;;7.35;;
27802;SDS011;15182;48.174;11.562;2023-06-26T14:28:49;6.28;;;5.70;;
27802;SDS011;15182;48.174;11.562;2023-06-26T14:31:17;5.90;;;5.68;;
27802;SDS011;15182;48.174;11.562;2023-06-26T14:33:46;6.38;;;5.78;;
27802;SDS011;15182;48.174;11.562;2023-06-26T14:36:14;5.90;;;5.60;;
27802;SDS011;15182;48.174;11.562;2023-06-26T14:38:41;6.00;;;5.70;;
27802;SDS011;15182;48.174;11.562;2023-06-26T14:41:21;6.43;;;6.03;;
27802;SDS011;15182;48.174;11.562;2023-06-26T14:43:51;8.50;;;7.80;;
27802;SDS011;15182;48.174;11.562;2023-06-26T14:46:19;8.77;;;6.05;;